sensor_id;sensor_type;location;lat;lon;timestamp;P1;durP1;ratioP1;P2;durP2;ratioP2
77206;SDS011;66190;50.708;7.906;2023-09-30T00:00:04;16.43;;;5.27;;
77206;SDS011;66190;50.708;7.906;2023-09-30T00:02:33;16.58;;;5.25;;
77206;SDS011;66190;50.708;7.906;2023-09-30T00:04:58;19.43;;;5.30;;
77206;SDS011;66190;50.708;7.906;2023-09-30T00:07:24;15.52;;;5.82;;
77206;SDS011;66190;50.708;7.906;2023-09-30T00:09:49;18.77;;;6.50;;
77206;SDS011;66190;50.708;7.906;2023-09-30T00:12:16;17.40;;;6.32;;
77206;SDS011;66190;50.708;7.906;2023-09-30T00:14:42;16.33;;;5.13;;
77206;SDS011;66190;50.708;7.906;2023-09-30T00:17:07;20.67;;;6.32;;
77206;SDS011;66190;50.708;7.906;2023-09-30T00:19:33;16.37;;;5.77;;
77206;SDS011;66190;50.708;7.906;2023-09-30T00:21:58;19.13;;;5.57;;
77206;SDS011;66190;50.708;7.906;2023-09-30T00:24:25;16.48;;;5.43;;
77206;SDS011;66190;50.708;7.906;2023-09-30T00:26:51;17.33;;;5.60;;
77206;SDS011;66190;50.708;7.906;2023-09-30T00:29:16;15.70;;;5.25;;
77206;SDS011;66190;50.708;7.906;2023-09-30T00:31:42;16.02;;;5.13;;
77206;SDS011;66190;50.708;7.906;2023-09-30T00:34:09;13.73;;;5.82;;
77206;SDS011;66190;50.708;7.906;2023-09-30T00:36:34;14.10;;;5.78;;
77206;SDS011;66190;50.708;7.906;2023-09-30T00:39:00;16.83;;;6.07;;
77206;SDS011;66190;50.708;7.906;2023-09-30T00:41:25;16.77;;;5.80;;
77206;SDS011;66190;50.708;7.906;2023-09-30T00:43:51;14.67;;;5.17;;
77206;SDS011;66190;50.708;7.906;2023-09-30T00:46:20;16.43;;;5.30;;
77206;SDS011;66190;50.708;7.906;2023-09-30T00:48:54;15.60;;;5.93;;
77206;SDS011;66190;50.708;7.906;2023-09-30T00:51:21;18.70;;;5.45;;
77206;SDS011;66190;50.708;7.906;2023-09-30T00:53:47;15.25;;;5.43;;
77206;SDS011;66190;50.708;7.906;2023-09-30T00:56:13;14.27;;;5.40;;
77206;SDS011;66190;50.708;7.906;2023-09-30T00:58:39;12.73;;;4.90;;
77206;SDS011;66190;50.708;7.906;2023-09-30T01:01:05;17.02;;;5.38;;
77206;SDS011;66190;50.708;7.906;2023-09-30T01:03:31;15.23;;;4.82;;
77206;SDS011;66190;50.708;7.906;2023-09-30T01:05:57;14.93;;;5.37;;
77206;SDS011;66190;50.708;7.906;2023-09-30T01:08:22;12.57;;;4.80;;
77206;SDS011;66190;50.708;7.906;2023-09-30T01:10:48;16.77;;;5.60;;
77206;SDS011;66190;50.708;7.906;2023-09-30T01:13:14;19.87;;;5.83;;
77206;SDS011;66190;50.708;7.906;2023-09-30T01:15:39;14.13;;;5.05;;
77206;SDS011;66190;50.708;7.906;2023-09-30T01:18:05;17.53;;;5.43;;
77206;SDS011;66190;50.708;7.906;2023-09-30T01:20:31;17.73;;;5.45;;
77206;SDS011;66190;50.708;7.906;2023-09-30T01:22:57;17.73;;;6.28;;
77206;SDS011;66190;50.708;7.906;2023-09-30T01:25:23;19.07;;;5.63;;
77206;SDS011;66190;50.708;7.906;2023-09-30T01:27:49;16.70;;;6.07;;
77206;SDS011;66190;50.708;7.906;2023-09-30T01:30:16;18.42;;;6.47;;
77206;SDS011;66190;50.708;7.906;2023-09-30T01:32:43;19.02;;;6.55;;
77206;SDS011;66190;50.708;7.906;2023-09-30T01:35:08;15.60;;;6.32;;
77206;SDS011;66190;50.708;7.906;2023-09-30T01:37:35;28.40;;;6.60;;
77206;SDS011;66190;50.708;7.906;2023-09-30T01:40:01;25.45;;;6.53;;
77206;SDS011;66190;50.708;7.906;2023-09-30T01:42:28;19.33;;;6.07;;
77206;SDS011;66190;50.708;7.906;2023-09-30T01:44:54;22.10;;;6.85;;
77206;SDS011;66190;50.708;7.906;2023-09-30T01:47:21;21.63;;;6.53;;
77206;SDS011;66190;50.708;7.906;2023-09-30T01:49:47;26.97;;;6.93;;
77206;SDS011;66190;50.708;7.906;2023-09-30T01:52:12;16.50;;;6.00;;
77206;SDS011;66190;50.708;7.906;2023-09-30T01:54:37;17.10;;;5.03;;
77206;SDS011;66190;50.708;7.906;2023-09-30T01:57:03;16.17;;;6.17;;
77206;SDS011;66190;50.708;7.906;2023-09-30T01:59:28;25.43;;;6.33;;
77206;SDS011;66190;50.708;7.906;2023-09-30T02:01:54;17.48;;;5.45;;
77206;SDS011;66190;50.708;7.906;2023-09-30T02:04:19;26.07;;;5.53;;
77206;SDS011;66190;50.708;7.906;2023-09-30T02:06:44;30.70;;;6.00;;
77206;SDS011;66190;50.708;7.906;2023-09-30T02:09:10;30.67;;;6.13;;
77206;SDS011;66190;50.708;7.906;2023-09-30T02:11:35;35.67;;;5.07;;
77206;SDS011;66190;50.708;7.906;2023-09-30T02:14:02;25.05;;;5.22;;
77206;SDS011;66190;50.708;7.906;2023-09-30T02:16:28;17.45;;;5.30;;
77206;SDS011;66190;50.708;7.906;2023-09-30T02:18:53;14.50;;;4.57;;
77206;SDS011;66190;50.708;7.906;2023-09-30T02:21:19;16.20;;;5.63;;
77206;SDS011;66190;50.708;7.906;2023-09-30T02:23:46;20.98;;;5.20;;
77206;SDS011;66190;50.708;7.906;2023-09-30T02:26:16;14.77;;;4.90;;
77206;SDS011;66190;50.708;7.906;2023-09-30T02:28:42;16.45;;;5.40;;
77206;SDS011;66190;50.708;7.906;2023-09-30T02:31:07;20.63;;;6.07;;
77206;SDS011;66190;50.708;7.906;2023-09-30T02:33:36;18.03;;;6.10;;
77206;SDS011;66190;50.708;7.906;2023-09-30T02:36:02;25.13;;;5.55;;
77206;SDS011;66190;50.708;7.906;2023-09-30T02:38:30;28.65;;;5.95;;
77206;SDS011;66190;50.708;7.906;2023-09-30T02:40:56;25.03;;;5.93;;
77206;SDS011;66190;50.708;7.906;2023-09-30T02:43:21;35.77;;;6.63;;
77206;SDS011;66190;50.708;7.906;2023-09-30T02:45:47;36.03;;;6.03;;
77206;SDS011;66190;50.708;7.906;2023-09-30T02:48:12;29.10;;;5.70;;
77206;SDS011;66190;50.708;7.906;2023-09-30T02:50:38;39.00;;;5.53;;
77206;SDS011;66190;50.708;7.906;2023-09-30T02:53:06;31.55;;;5.60;;
77206;SDS011;66190;50.708;7.906;2023-09-30T02:55:31;26.77;;;5.87;;
77206;SDS011;66190;50.708;7.906;2023-09-30T02:57:57;36.85;;;5.28;;
77206;SDS011;66190;50.708;7.906;2023-09-30T03:00:23;65.72;;;5.50;;
77206;SDS011;66190;50.708;7.906;2023-09-30T03:02:49;38.95;;;5.18;;
77206;SDS011;66190;50.708;7.906;2023-09-30T03:05:16;52.05;;;4.68;;
77206;SDS011;66190;50.708;7.906;2023-09-30T03:07:42;14.40;;;4.07;;
77206;SDS011;66190;50.708;7.906;2023-09-30T03:10:08;26.27;;;4.60;;
77206;SDS011;66190;50.708;7.906;2023-09-30T03:12:34;23.63;;;3.25;;
77206;SDS011;66190;50.708;7.906;2023-09-30T03:15:00;24.33;;;4.28;;
77206;SDS011;66190;50.708;7.906;2023-09-30T03:17:33;16.67;;;2.80;;
77206;SDS011;66190;50.708;7.906;2023-09-30T03:19:58;18.92;;;2.95;;
77206;SDS011;66190;50.708;7.906;2023-09-30T03:22:24;17.60;;;2.65;;
77206;SDS011;66190;50.708;7.906;2023-09-30T03:24:55;17.67;;;2.60;;
77206;SDS011;66190;50.708;7.906;2023-09-30T03:27:22;14.15;;;2.70;;
77206;SDS011;66190;50.708;7.906;2023-09-30T03:29:48;14.60;;;3.33;;
77206;SDS011;66190;50.708;7.906;2023-09-30T03:32:14;24.00;;;3.13;;
77206;SDS011;66190;50.708;7.906;2023-09-30T03:34:39;13.03;;;3.00;;
77206;SDS011;66190;50.708;7.906;2023-09-30T03:37:09;21.52;;;3.45;;
77206;SDS011;66190;50.708;7.906;2023-09-30T03:39:35;19.90;;;3.50;;
77206;SDS011;66190;50.708;7.906;2023-09-30T03:42:00;15.93;;;3.13;;
77206;SDS011;66190;50.708;7.906;2023-09-30T03:44:26;23.10;;;3.17;;
77206;SDS011;66190;50.708;7.906;2023-09-30T03:46:51;17.83;;;3.47;;
77206;SDS011;66190;50.708;7.906;2023-09-30T03:49:18;17.83;;;3.67;;
77206;SDS011;66190;50.708;7.906;2023-09-30T03:51:45;21.85;;;3.13;;
77206;SDS011;66190;50.708;7.906;2023-09-30T03:54:10;10.43;;;2.80;;
77206;SDS011;66190;50.708;7.906;2023-09-30T03:56:36;12.68;;;2.60;;
77206;SDS011;66190;50.708;7.906;2023-09-30T03:59:03;24.02;;;3.13;;
77206;SDS011;66190;50.708;7.906;2023-09-30T04:01:29;22.40;;;3.23;;
77206;SDS011;66190;50.708;7.906;2023-09-30T04:03:56;27.35;;;3.53;;
77206;SDS011;66190;50.708;7.906;2023-09-30T04:06:21;18.67;;;3.70;;
77206;SDS011;66190;50.708;7.906;2023-09-30T04:08:47;26.98;;;3.83;;
77206;SDS011;66190;50.708;7.906;2023-09-30T04:11:12;12.47;;;2.20;;
77206;SDS011;66190;50.708;7.906;2023-09-30T04:13:46;19.20;;;3.20;;
77206;SDS011;66190;50.708;7.906;2023-09-30T04:16:11;21.70;;;2.67;;
77206;SDS011;66190;50.708;7.906;2023-09-30T04:18:37;23.05;;;2.65;;
77206;SDS011;66190;50.708;7.906;2023-09-30T04:21:05;23.27;;;2.80;;
77206;SDS011;66190;50.708;7.906;2023-09-30T04:23:32;22.40;;;2.90;;
77206;SDS011;66190;50.708;7.906;2023-09-30T04:25:58;17.00;;;2.67;;
77206;SDS011;66190;50.708;7.906;2023-09-30T04:28:23;15.93;;;2.23;;
77206;SDS011;66190;50.708;7.906;2023-09-30T04:30:49;18.25;;;2.38;;
77206;SDS011;66190;50.708;7.906;2023-09-30T04:33:15;17.83;;;2.10;;
77206;SDS011;66190;50.708;7.906;2023-09-30T04:35:42;14.60;;;2.45;;
77206;SDS011;66190;50.708;7.906;2023-09-30T04:38:08;13.77;;;2.63;;
77206;SDS011;66190;50.708;7.906;2023-09-30T04:40:34;11.80;;;1.97;;
77206;SDS011;66190;50.708;7.906;2023-09-30T04:42:59;10.47;;;1.90;;
77206;SDS011;66190;50.708;7.906;2023-09-30T04:45:25;12.43;;;1.63;;
77206;SDS011;66190;50.708;7.906;2023-09-30T04:47:51;10.35;;;1.67;;
77206;SDS011;66190;50.708;7.906;2023-09-30T04:50:17;10.95;;;1.73;;
77206;SDS011;66190;50.708;7.906;2023-09-30T04:52:43;10.47;;;1.80;;
77206;SDS011;66190;50.708;7.906;2023-09-30T04:55:10;7.90;;;1.55;;
77206;SDS011;66190;50.708;7.906;2023-09-30T04:57:37;16.50;;;1.80;;
77206;SDS011;66190;50.708;7.906;2023-09-30T05:00:03;13.40;;;1.67;;
77206;SDS011;66190;50.708;7.906;2023-09-30T05:02:35;14.33;;;1.97;;
77206;SDS011;66190;50.708;7.906;2023-09-30T05:05:01;8.05;;;1.55;;
77206;SDS011;66190;50.708;7.906;2023-09-30T05:07:27;20.63;;;1.80;;
77206;SDS011;66190;50.708;7.906;2023-09-30T05:09:54;9.50;;;1.80;;
77206;SDS011;66190;50.708;7.906;2023-09-30T05:12:19;9.02;;;1.92;;
77206;SDS011;66190;50.708;7.906;2023-09-30T05:14:45;13.77;;;1.67;;
77206;SDS011;66190;50.708;7.906;2023-09-30T05:17:11;14.90;;;1.70;;
77206;SDS011;66190;50.708;7.906;2023-09-30T05:19:38;32.77;;;1.97;;
77206;SDS011;66190;50.708;7.906;2023-09-30T05:22:03;14.98;;;1.70;;
77206;SDS011;66190;50.708;7.906;2023-09-30T05:24:30;6.88;;;1.58;;
77206;SDS011;66190;50.708;7.906;2023-09-30T05:26:56;13.85;;;1.60;;
77206;SDS011;66190;50.708;7.906;2023-09-30T05:29:21;25.60;;;1.90;;
77206;SDS011;66190;50.708;7.906;2023-09-30T05:31:47;7.97;;;1.52;;
77206;SDS011;66190;50.708;7.906;2023-09-30T05:34:13;11.77;;;1.92;;
77206;SDS011;66190;50.708;7.906;2023-09-30T05:36:39;8.93;;;1.50;;
77206;SDS011;66190;50.708;7.906;2023-09-30T05:39:04;19.80;;;1.87;;
77206;SDS011;66190;50.708;7.906;2023-09-30T05:41:33;22.52;;;1.88;;
77206;SDS011;66190;50.708;7.906;2023-09-30T05:43:58;14.15;;;1.63;;
77206;SDS011;66190;50.708;7.906;2023-09-30T05:46:24;10.13;;;1.40;;
77206;SDS011;66190;50.708;7.906;2023-09-30T05:48:52;52.17;;;2.50;;
77206;SDS011;66190;50.708;7.906;2023-09-30T05:51:18;16.08;;;1.40;;
77206;SDS011;66190;50.708;7.906;2023-09-30T05:53:43;14.43;;;1.50;;
77206;SDS011;66190;50.708;7.906;2023-09-30T05:56:09;15.27;;;1.25;;
77206;SDS011;66190;50.708;7.906;2023-09-30T05:58:36;17.85;;;1.48;;
77206;SDS011;66190;50.708;7.906;2023-09-30T06:01:07;6.95;;;0.95;;
77206;SDS011;66190;50.708;7.906;2023-09-30T06:03:44;11.27;;;1.10;;
77206;SDS011;66190;50.708;7.906;2023-09-30T06:06:15;11.73;;;1.20;;
77206;SDS011;66190;50.708;7.906;2023-09-30T06:08:43;16.85;;;1.40;;
77206;SDS011;66190;50.708;7.906;2023-09-30T06:11:19;15.77;;;1.10;;
77206;SDS011;66190;50.708;7.906;2023-09-30T06:13:55;10.13;;;1.08;;
77206;SDS011;66190;50.708;7.906;2023-09-30T06:16:24;11.52;;;1.30;;
77206;SDS011;66190;50.708;7.906;2023-09-30T06:18:51;12.57;;;1.95;;
77206;SDS011;66190;50.708;7.906;2023-09-30T06:21:17;9.20;;;1.05;;
77206;SDS011;66190;50.708;7.906;2023-09-30T06:23:46;9.48;;;1.27;;
77206;SDS011;66190;50.708;7.906;2023-09-30T06:26:12;10.93;;;1.20;;
77206;SDS011;66190;50.708;7.906;2023-09-30T06:28:38;9.95;;;1.45;;
77206;SDS011;66190;50.708;7.906;2023-09-30T06:31:09;6.10;;;1.70;;
77206;SDS011;66190;50.708;7.906;2023-09-30T06:33:35;6.57;;;1.85;;
77206;SDS011;66190;50.708;7.906;2023-09-30T06:36:07;4.72;;;1.20;;
77206;SDS011;66190;50.708;7.906;2023-09-30T06:38:33;9.55;;;1.52;;
77206;SDS011;66190;50.708;7.906;2023-09-30T06:40:59;8.23;;;1.37;;
77206;SDS011;66190;50.708;7.906;2023-09-30T06:43:26;11.43;;;1.58;;
77206;SDS011;66190;50.708;7.906;2023-09-30T06:45:52;11.63;;;1.40;;
77206;SDS011;66190;50.708;7.906;2023-09-30T06:48:19;9.95;;;1.25;;
77206;SDS011;66190;50.708;7.906;2023-09-30T06:50:47;8.60;;;1.30;;
77206;SDS011;66190;50.708;7.906;2023-09-30T06:53:15;5.70;;;1.40;;
77206;SDS011;66190;50.708;7.906;2023-09-30T06:55:41;7.90;;;2.03;;
77206;SDS011;66190;50.708;7.906;2023-09-30T06:58:08;7.30;;;1.67;;
77206;SDS011;66190;50.708;7.906;2023-09-30T07:00:35;7.13;;;1.88;;
77206;SDS011;66190;50.708;7.906;2023-09-30T07:03:01;6.70;;;1.87;;
77206;SDS011;66190;50.708;7.906;2023-09-30T07:05:27;6.43;;;1.60;;
77206;SDS011;66190;50.708;7.906;2023-09-30T07:07:53;7.03;;;1.70;;
77206;SDS011;66190;50.708;7.906;2023-09-30T07:10:19;7.15;;;2.00;;
77206;SDS011;66190;50.708;7.906;2023-09-30T07:12:44;6.53;;;1.70;;
77206;SDS011;66190;50.708;7.906;2023-09-30T07:15:10;6.63;;;2.00;;
77206;SDS011;66190;50.708;7.906;2023-09-30T07:17:36;6.88;;;1.80;;
77206;SDS011;66190;50.708;7.906;2023-09-30T07:20:02;7.00;;;2.17;;
77206;SDS011;66190;50.708;7.906;2023-09-30T07:22:29;5.78;;;2.00;;
77206;SDS011;66190;50.708;7.906;2023-09-30T07:24:56;6.25;;;2.00;;
77206;SDS011;66190;50.708;7.906;2023-09-30T07:27:21;8.27;;;2.43;;
77206;SDS011;66190;50.708;7.906;2023-09-30T07:29:47;7.32;;;2.38;;
77206;SDS011;66190;50.708;7.906;2023-09-30T07:32:13;10.73;;;2.40;;
77206;SDS011;66190;50.708;7.906;2023-09-30T07:34:38;7.70;;;1.85;;
77206;SDS011;66190;50.708;7.906;2023-09-30T07:37:04;7.20;;;1.97;;
77206;SDS011;66190;50.708;7.906;2023-09-30T07:39:29;6.53;;;1.90;;
77206;SDS011;66190;50.708;7.906;2023-09-30T07:41:55;8.18;;;2.10;;
77206;SDS011;66190;50.708;7.906;2023-09-30T07:44:21;7.07;;;2.13;;
77206;SDS011;66190;50.708;7.906;2023-09-30T07:46:46;6.83;;;2.00;;
77206;SDS011;66190;50.708;7.906;2023-09-30T07:49:12;7.57;;;1.98;;
77206;SDS011;66190;50.708;7.906;2023-09-30T07:51:37;7.32;;;1.92;;
77206;SDS011;66190;50.708;7.906;2023-09-30T07:54:04;7.70;;;2.22;;
77206;SDS011;66190;50.708;7.906;2023-09-30T07:56:31;8.48;;;2.42;;
77206;SDS011;66190;50.708;7.906;2023-09-30T07:58:56;8.53;;;2.90;;
77206;SDS011;66190;50.708;7.906;2023-09-30T08:01:21;9.95;;;2.88;;
77206;SDS011;66190;50.708;7.906;2023-09-30T08:03:47;12.27;;;2.47;;
77206;SDS011;66190;50.708;7.906;2023-09-30T08:06:12;10.27;;;2.17;;
77206;SDS011;66190;50.708;7.906;2023-09-30T08:08:38;8.00;;;1.95;;
77206;SDS011;66190;50.708;7.906;2023-09-30T08:11:05;12.13;;;2.55;;
77206;SDS011;66190;50.708;7.906;2023-09-30T08:13:31;8.40;;;2.08;;
77206;SDS011;66190;50.708;7.906;2023-09-30T08:15:58;8.13;;;1.80;;
77206;SDS011;66190;50.708;7.906;2023-09-30T08:18:26;10.63;;;2.20;;
77206;SDS011;66190;50.708;7.906;2023-09-30T08:20:52;9.37;;;2.27;;
77206;SDS011;66190;50.708;7.906;2023-09-30T08:23:17;9.65;;;2.00;;
77206;SDS011;66190;50.708;7.906;2023-09-30T08:25:43;7.67;;;2.00;;
77206;SDS011;66190;50.708;7.906;2023-09-30T08:28:09;10.40;;;1.90;;
77206;SDS011;66190;50.708;7.906;2023-09-30T08:30:34;9.48;;;1.90;;
77206;SDS011;66190;50.708;7.906;2023-09-30T08:33:01;9.10;;;2.08;;
77206;SDS011;66190;50.708;7.906;2023-09-30T08:35:28;8.87;;;2.20;;
77206;SDS011;66190;50.708;7.906;2023-09-30T08:37:54;8.90;;;1.80;;
77206;SDS011;66190;50.708;7.906;2023-09-30T08:40:20;9.13;;;1.90;;
77206;SDS011;66190;50.708;7.906;2023-09-30T08:42:53;8.95;;;1.50;;
77206;SDS011;66190;50.708;7.906;2023-09-30T08:45:18;8.63;;;2.00;;
77206;SDS011;66190;50.708;7.906;2023-09-30T08:47:47;8.50;;;2.20;;
77206;SDS011;66190;50.708;7.906;2023-09-30T08:50:12;8.77;;;2.15;;
77206;SDS011;66190;50.708;7.906;2023-09-30T08:52:40;9.30;;;1.70;;
77206;SDS011;66190;50.708;7.906;2023-09-30T08:55:06;7.75;;;1.52;;
77206;SDS011;66190;50.708;7.906;2023-09-30T08:57:33;9.70;;;2.22;;
77206;SDS011;66190;50.708;7.906;2023-09-30T09:00:02;9.57;;;1.85;;
77206;SDS011;66190;50.708;7.906;2023-09-30T09:02:28;9.05;;;1.98;;
77206;SDS011;66190;50.708;7.906;2023-09-30T09:04:54;10.10;;;1.65;;
77206;SDS011;66190;50.708;7.906;2023-09-30T09:07:19;8.27;;;1.83;;
77206;SDS011;66190;50.708;7.906;2023-09-30T09:10:02;9.30;;;1.53;;
77206;SDS011;66190;50.708;7.906;2023-09-30T09:12:29;9.25;;;1.88;;
77206;SDS011;66190;50.708;7.906;2023-09-30T09:14:54;6.43;;;1.10;;
77206;SDS011;66190;50.708;7.906;2023-09-30T09:17:20;10.27;;;1.63;;
77206;SDS011;66190;50.708;7.906;2023-09-30T09:20:09;6.93;;;1.42;;
77206;SDS011;66190;50.708;7.906;2023-09-30T09:25:04;8.82;;;1.58;;
77206;SDS011;66190;50.708;7.906;2023-09-30T09:27:33;7.68;;;1.38;;
77206;SDS011;66190;50.708;7.906;2023-09-30T09:30:19;7.88;;;1.45;;
77206;SDS011;66190;50.708;7.906;2023-09-30T09:33:02;7.25;;;1.63;;
77206;SDS011;66190;50.708;7.906;2023-09-30T09:35:30;9.50;;;2.10;;
77206;SDS011;66190;50.708;7.906;2023-09-30T09:40:28;7.50;;;1.50;;
77206;SDS011;66190;50.708;7.906;2023-09-30T09:42:57;7.15;;;1.45;;
77206;SDS011;66190;50.708;7.906;2023-09-30T09:45:25;6.00;;;1.35;;
77206;SDS011;66190;50.708;7.906;2023-09-30T09:47:52;9.18;;;1.55;;
77206;SDS011;66190;50.708;7.906;2023-09-30T09:50:18;9.43;;;1.48;;
77206;SDS011;66190;50.708;7.906;2023-09-30T09:52:47;9.60;;;1.17;;
77206;SDS011;66190;50.708;7.906;2023-09-30T09:55:15;5.35;;;1.08;;
77206;SDS011;66190;50.708;7.906;2023-09-30T09:57:42;8.40;;;1.45;;
77206;SDS011;66190;50.708;7.906;2023-09-30T10:00:10;8.05;;;1.60;;
77206;SDS011;66190;50.708;7.906;2023-09-30T10:02:44;6.15;;;1.17;;
77206;SDS011;66190;50.708;7.906;2023-09-30T10:05:14;7.38;;;1.30;;
77206;SDS011;66190;50.708;7.906;2023-09-30T10:10:38;6.07;;;1.38;;
77206;SDS011;66190;50.708;7.906;2023-09-30T10:13:04;8.97;;;1.70;;
77206;SDS011;66190;50.708;7.906;2023-09-30T10:15:37;7.45;;;1.70;;
77206;SDS011;66190;50.708;7.906;2023-09-30T10:20:37;7.20;;;1.75;;
77206;SDS011;66190;50.708;7.906;2023-09-30T10:25:54;7.17;;;1.60;;
77206;SDS011;66190;50.708;7.906;2023-09-30T10:28:45;8.82;;;1.63;;
77206;SDS011;66190;50.708;7.906;2023-09-30T10:31:15;5.22;;;1.70;;
77206;SDS011;66190;50.708;7.906;2023-09-30T10:38:54;5.73;;;1.30;;
77206;SDS011;66190;50.708;7.906;2023-09-30T10:46:48;5.43;;;1.87;;
77206;SDS011;66190;50.708;7.906;2023-09-30T10:49:15;9.15;;;2.03;;
77206;SDS011;66190;50.708;7.906;2023-09-30T10:51:46;7.65;;;2.22;;
77206;SDS011;66190;50.708;7.906;2023-09-30T10:54:13;6.53;;;1.70;;
77206;SDS011;66190;50.708;7.906;2023-09-30T10:56:38;7.70;;;2.07;;
77206;SDS011;66190;50.708;7.906;2023-09-30T10:59:03;7.10;;;1.57;;
77206;SDS011;66190;50.708;7.906;2023-09-30T11:01:33;8.52;;;1.77;;
77206;SDS011;66190;50.708;7.906;2023-09-30T11:04:01;7.30;;;1.73;;
77206;SDS011;66190;50.708;7.906;2023-09-30T11:06:30;8.60;;;1.83;;
77206;SDS011;66190;50.708;7.906;2023-09-30T11:08:57;7.53;;;1.53;;
77206;SDS011;66190;50.708;7.906;2023-09-30T11:11:34;7.90;;;1.90;;
77206;SDS011;66190;50.708;7.906;2023-09-30T11:16:45;6.93;;;1.50;;
77206;SDS011;66190;50.708;7.906;2023-09-30T11:19:11;6.78;;;2.15;;
77206;SDS011;66190;50.708;7.906;2023-09-30T11:21:41;6.70;;;2.10;;
77206;SDS011;66190;50.708;7.906;2023-09-30T11:24:08;7.55;;;1.63;;
77206;SDS011;66190;50.708;7.906;2023-09-30T11:26:34;7.35;;;2.22;;
77206;SDS011;66190;50.708;7.906;2023-09-30T11:29:10;7.90;;;1.50;;
77206;SDS011;66190;50.708;7.906;2023-09-30T11:31:38;5.97;;;2.05;;
77206;SDS011;66190;50.708;7.906;2023-09-30T11:34:04;6.60;;;1.97;;
77206;SDS011;66190;50.708;7.906;2023-09-30T11:36:33;8.90;;;1.65;;
77206;SDS011;66190;50.708;7.906;2023-09-30T11:39:00;6.30;;;1.70;;
77206;SDS011;66190;50.708;7.906;2023-09-30T11:41:32;6.55;;;2.15;;
77206;SDS011;66190;50.708;7.906;2023-09-30T11:44:03;5.30;;;1.70;;
77206;SDS011;66190;50.708;7.906;2023-09-30T11:51:52;7.47;;;2.22;;
77206;SDS011;66190;50.708;7.906;2023-09-30T11:54:17;6.55;;;1.67;;
77206;SDS011;66190;50.708;7.906;2023-09-30T11:56:43;6.03;;;1.80;;
77206;SDS011;66190;50.708;7.906;2023-09-30T11:59:08;6.70;;;1.90;;
77206;SDS011;66190;50.708;7.906;2023-09-30T12:01:37;5.30;;;1.50;;
77206;SDS011;66190;50.708;7.906;2023-09-30T12:04:03;6.43;;;2.20;;
77206;SDS011;66190;50.708;7.906;2023-09-30T12:06:29;5.53;;;1.67;;
77206;SDS011;66190;50.708;7.906;2023-09-30T12:08:54;6.37;;;1.80;;
77206;SDS011;66190;50.708;7.906;2023-09-30T12:11:20;8.50;;;1.77;;
77206;SDS011;66190;50.708;7.906;2023-09-30T12:13:45;7.67;;;2.03;;
77206;SDS011;66190;50.708;7.906;2023-09-30T12:16:13;8.02;;;2.17;;
77206;SDS011;66190;50.708;7.906;2023-09-30T12:18:39;8.27;;;2.17;;
77206;SDS011;66190;50.708;7.906;2023-09-30T12:21:06;7.15;;;2.13;;
77206;SDS011;66190;50.708;7.906;2023-09-30T12:23:33;6.38;;;1.70;;
77206;SDS011;66190;50.708;7.906;2023-09-30T12:25:58;6.40;;;1.90;;
77206;SDS011;66190;50.708;7.906;2023-09-30T12:28:23;7.50;;;1.97;;
77206;SDS011;66190;50.708;7.906;2023-09-30T12:30:49;6.90;;;2.10;;
77206;SDS011;66190;50.708;7.906;2023-09-30T12:33:14;6.63;;;1.75;;
77206;SDS011;66190;50.708;7.906;2023-09-30T12:35:40;7.87;;;1.87;;
77206;SDS011;66190;50.708;7.906;2023-09-30T12:38:05;7.33;;;2.07;;
77206;SDS011;66190;50.708;7.906;2023-09-30T12:40:30;9.43;;;2.57;;
77206;SDS011;66190;50.708;7.906;2023-09-30T12:42:56;6.60;;;2.07;;
77206;SDS011;66190;50.708;7.906;2023-09-30T12:45:22;6.55;;;1.70;;
77206;SDS011;66190;50.708;7.906;2023-09-30T12:47:48;6.73;;;2.10;;
77206;SDS011;66190;50.708;7.906;2023-09-30T12:50:13;7.73;;;2.07;;
77206;SDS011;66190;50.708;7.906;2023-09-30T12:52:43;8.75;;;2.15;;
77206;SDS011;66190;50.708;7.906;2023-09-30T12:55:09;7.53;;;2.08;;
77206;SDS011;66190;50.708;7.906;2023-09-30T12:57:35;7.85;;;2.30;;
77206;SDS011;66190;50.708;7.906;2023-09-30T13:00:01;9.00;;;2.00;;
77206;SDS011;66190;50.708;7.906;2023-09-30T13:02:28;7.25;;;2.05;;
77206;SDS011;66190;50.708;7.906;2023-09-30T13:04:53;6.87;;;1.87;;
77206;SDS011;66190;50.708;7.906;2023-09-30T13:07:19;7.15;;;1.90;;
77206;SDS011;66190;50.708;7.906;2023-09-30T13:09:45;6.20;;;2.00;;
77206;SDS011;66190;50.708;7.906;2023-09-30T13:12:11;5.90;;;1.80;;
77206;SDS011;66190;50.708;7.906;2023-09-30T13:14:36;8.00;;;1.90;;
77206;SDS011;66190;50.708;7.906;2023-09-30T13:17:03;8.03;;;2.03;;
77206;SDS011;66190;50.708;7.906;2023-09-30T13:19:29;7.03;;;2.38;;
77206;SDS011;66190;50.708;7.906;2023-09-30T13:21:54;7.47;;;2.17;;
77206;SDS011;66190;50.708;7.906;2023-09-30T13:24:20;7.43;;;2.03;;
77206;SDS011;66190;50.708;7.906;2023-09-30T13:26:45;8.90;;;2.07;;
77206;SDS011;66190;50.708;7.906;2023-09-30T13:29:11;8.25;;;2.10;;
77206;SDS011;66190;50.708;7.906;2023-09-30T13:31:38;9.35;;;2.45;;
77206;SDS011;66190;50.708;7.906;2023-09-30T13:34:04;7.60;;;2.60;;
77206;SDS011;66190;50.708;7.906;2023-09-30T13:36:30;9.27;;;2.08;;
77206;SDS011;66190;50.708;7.906;2023-09-30T13:38:56;7.87;;;2.43;;
77206;SDS011;66190;50.708;7.906;2023-09-30T13:41:21;7.97;;;2.10;;
77206;SDS011;66190;50.708;7.906;2023-09-30T13:43:47;6.70;;;1.80;;
77206;SDS011;66190;50.708;7.906;2023-09-30T13:46:12;6.60;;;2.17;;
77206;SDS011;66190;50.708;7.906;2023-09-30T13:48:38;6.77;;;1.73;;
77206;SDS011;66190;50.708;7.906;2023-09-30T13:51:04;6.50;;;2.00;;
77206;SDS011;66190;50.708;7.906;2023-09-30T13:53:33;5.90;;;2.05;;
77206;SDS011;66190;50.708;7.906;2023-09-30T13:55:59;6.47;;;1.92;;
77206;SDS011;66190;50.708;7.906;2023-09-30T13:58:24;6.83;;;1.90;;
77206;SDS011;66190;50.708;7.906;2023-09-30T14:00:50;6.00;;;1.70;;
77206;SDS011;66190;50.708;7.906;2023-09-30T14:03:19;6.25;;;1.70;;
77206;SDS011;66190;50.708;7.906;2023-09-30T14:05:45;6.70;;;2.10;;
77206;SDS011;66190;50.708;7.906;2023-09-30T14:08:12;5.50;;;1.45;;
77206;SDS011;66190;50.708;7.906;2023-09-30T14:10:37;6.65;;;2.78;;
77206;SDS011;66190;50.708;7.906;2023-09-30T14:13:03;7.60;;;1.57;;
77206;SDS011;66190;50.708;7.906;2023-09-30T14:15:28;6.07;;;1.90;;
77206;SDS011;66190;50.708;7.906;2023-09-30T14:17:56;7.22;;;1.63;;
77206;SDS011;66190;50.708;7.906;2023-09-30T14:20:27;6.85;;;2.20;;
77206;SDS011;66190;50.708;7.906;2023-09-30T14:22:52;6.47;;;1.83;;
77206;SDS011;66190;50.708;7.906;2023-09-30T14:25:20;5.53;;;1.80;;
77206;SDS011;66190;50.708;7.906;2023-09-30T14:27:45;6.17;;;1.87;;
77206;SDS011;66190;50.708;7.906;2023-09-30T14:30:11;7.00;;;2.10;;
77206;SDS011;66190;50.708;7.906;2023-09-30T14:32:38;6.43;;;1.75;;
77206;SDS011;66190;50.708;7.906;2023-09-30T14:35:05;9.80;;;2.47;;
77206;SDS011;66190;50.708;7.906;2023-09-30T14:37:31;8.53;;;2.53;;
77206;SDS011;66190;50.708;7.906;2023-09-30T14:39:56;6.68;;;1.90;;
77206;SDS011;66190;50.708;7.906;2023-09-30T14:42:22;7.50;;;2.50;;
77206;SDS011;66190;50.708;7.906;2023-09-30T14:44:47;7.87;;;3.00;;
77206;SDS011;66190;50.708;7.906;2023-09-30T14:47:13;8.00;;;3.13;;
77206;SDS011;66190;50.708;7.906;2023-09-30T14:49:38;9.55;;;3.20;;
77206;SDS011;66190;50.708;7.906;2023-09-30T14:52:03;8.73;;;2.80;;
77206;SDS011;66190;50.708;7.906;2023-09-30T14:54:30;7.22;;;2.88;;
77206;SDS011;66190;50.708;7.906;2023-09-30T14:56:56;7.33;;;2.50;;
77206;SDS011;66190;50.708;7.906;2023-09-30T14:59:21;7.55;;;2.75;;
77206;SDS011;66190;50.708;7.906;2023-09-30T15:01:47;6.20;;;2.33;;
77206;SDS011;66190;50.708;7.906;2023-09-30T15:04:13;6.22;;;2.20;;
77206;SDS011;66190;50.708;7.906;2023-09-30T15:06:40;7.63;;;2.97;;
77206;SDS011;66190;50.708;7.906;2023-09-30T15:09:06;7.57;;;2.40;;